createdAt,value
2022-10-19T00:01:15.504Z,11.34
2022-10-19T00:03:43.613Z,11.32
2022-10-19T00:06:34.650Z,11.21
2022-10-19T00:09:08.811Z,11.20
2022-10-19T00:11:39.448Z,11.23
2022-10-19T00:14:06.513Z,11.03
2022-10-19T00:16:35.899Z,11.17
2022-10-19T00:19:05.712Z,10.96
2022-10-19T00:21:32.665Z,10.93
2022-10-19T00:23:59.141Z,10.82
2022-10-19T00:26:25.605Z,10.70
2022-10-19T00:28:56.060Z,10.72
2022-10-19T00:31:22.928Z,10.54
2022-10-19T00:33:49.426Z,10.60
2022-10-19T00:36:21.300Z,10.57
2022-10-19T00:38:48.203Z,10.22
2022-10-19T00:41:15.570Z,10.31
2022-10-19T00:43:58.837Z,10.10
2022-10-19T00:46:27.084Z,9.96
2022-10-19T00:49:00.233Z,9.77
2022-10-19T00:51:29.261Z,9.80
2022-10-19T00:53:56.451Z,9.95
2022-10-19T00:56:23.472Z,9.65
2022-10-19T00:58:50.211Z,9.85
2022-10-19T01:01:19.449Z,9.96
2022-10-19T01:03:46.558Z,9.83
2022-10-19T01:06:15.652Z,9.99
2022-10-19T01:08:42.041Z,9.73
2022-10-19T01:11:32.656Z,9.98
2022-10-19T01:14:25.102Z,9.96
2022-10-19T01:17:33.479Z,9.82
2022-10-19T01:20:29.297Z,9.81
2022-10-19T01:23:04.645Z,9.85
2022-10-19T01:25:51.843Z,9.93
2022-10-19T01:28:30.177Z,9.69
2022-10-19T01:31:07.122Z,9.75
2022-10-19T01:33:52.173Z,9.73
2022-10-19T01:36:40.583Z,9.71
2022-10-19T01:39:17.589Z,9.60
2022-10-19T01:42:07.245Z,9.55
2022-10-19T01:45:00.242Z,9.51
2022-10-19T01:47:36.799Z,9.43
2022-10-19T01:50:13.925Z,9.50
2022-10-19T01:52:41.686Z,9.19
2022-10-19T01:55:12.842Z,9.37
2022-10-19T01:57:45.774Z,9.24
2022-10-19T02:00:14.826Z,9.21
2022-10-19T02:02:45.592Z,9.34
2022-10-19T02:05:13.218Z,9.28
2022-10-19T02:07:44.098Z,9.08
2022-10-19T02:10:10.866Z,9.08
2022-10-19T02:12:38.191Z,9.10
2022-10-19T02:15:10.721Z,8.98
2022-10-19T02:17:43.641Z,9.04
2022-10-19T02:20:10.379Z,8.75
2022-10-19T02:22:37.175Z,8.76
2022-10-19T02:25:04.759Z,8.99
2022-10-19T02:27:31.214Z,8.67
2022-10-19T02:29:57.687Z,8.71
2022-10-19T02:32:24.195Z,8.76
2022-10-19T02:34:50.691Z,8.74
2022-10-19T02:37:19.865Z,8.81
2022-10-19T02:39:48.493Z,8.75
2022-10-19T02:42:24.871Z,8.57
2022-10-19T02:45:02.340Z,8.54
2022-10-19T02:47:35.269Z,8.51
2022-10-19T02:50:05.712Z,8.60
2022-10-19T02:52:32.179Z,8.56
2022-10-19T02:54:58.563Z,8.66
2022-10-19T02:57:25.867Z,8.60
2022-10-19T02:59:52.923Z,8.47
2022-10-19T03:02:20.702Z,8.43
2022-10-19T03:07:16.725Z,8.30
2022-10-19T03:09:43.529Z,8.50
2022-10-19T03:12:10.988Z,8.43
2022-10-19T03:14:37.371Z,8.31
2022-10-19T03:17:04.156Z,8.31
2022-10-19T03:19:31.126Z,8.43
2022-10-19T03:21:57.755Z,8.52
2022-10-19T03:24:24.218Z,8.45
2022-10-19T03:26:50.681Z,8.29
2022-10-19T03:29:17.105Z,8.43
2022-10-19T03:31:43.522Z,8.27
2022-10-19T03:34:09.878Z,8.30
2022-10-19T03:36:38.695Z,8.43
2022-10-19T03:39:08.323Z,8.36
2022-10-19T03:41:36.318Z,8.41
2022-10-19T03:44:03.399Z,8.39
2022-10-19T03:46:30.201Z,8.20
2022-10-19T03:48:56.620Z,8.14
2022-10-19T03:51:25.257Z,8.32
2022-10-19T03:54:04.204Z,8.33
2022-10-19T03:56:31.991Z,8.03
2022-10-19T03:59:00.441Z,8.28
2022-10-19T04:01:29.460Z,8.27
2022-10-19T04:03:57.740Z,8.24
2022-10-19T04:06:26.586Z,8.27
2022-10-19T04:08:53.104Z,8.25
2022-10-19T04:11:22.634Z,8.30
2022-10-19T04:13:50.519Z,8.43
2022-10-19T04:16:17.226Z,8.25
2022-10-19T04:18:43.687Z,8.13
2022-10-19T04:21:20.805Z,8.31
2022-10-19T04:23:53.864Z,8.29
2022-10-19T04:26:20.936Z,8.27
2022-10-19T04:28:47.414Z,8.06
2022-10-19T04:31:14.869Z,8.09
2022-10-19T04:33:42.023Z,8.05
2022-10-19T04:36:12.974Z,7.92
2022-10-19T04:38:42.762Z,7.78
2022-10-19T04:41:14.704Z,7.89
2022-10-19T04:43:41.420Z,7.72
2022-10-19T04:46:11.078Z,7.81
2022-10-19T04:48:38.855Z,7.63
2022-10-19T04:51:05.771Z,7.72
2022-10-19T04:53:33.145Z,7.77
2022-10-19T04:55:59.732Z,7.70
2022-10-19T04:58:27.323Z,7.73
2022-10-19T05:00:53.776Z,7.81
2022-10-19T05:03:20.282Z,7.58
2022-10-19T05:05:46.675Z,7.75
2022-10-19T05:08:13.098Z,7.70
2022-10-19T05:10:40.530Z,7.77
2022-10-19T05:13:09.494Z,7.77
2022-10-19T05:15:35.904Z,7.80
2022-10-19T05:18:02.393Z,7.88
2022-10-19T05:20:30.866Z,7.54
2022-10-19T05:22:59.119Z,7.65
2022-10-19T05:25:26.657Z,7.33
2022-10-19T05:27:53.604Z,7.47
2022-10-19T05:30:21.848Z,7.49
2022-10-19T05:32:48.877Z,7.21
2022-10-19T05:35:17.593Z,7.48
2022-10-19T05:37:46.475Z,7.40
2022-10-19T05:40:12.927Z,7.49
2022-10-19T05:42:40.422Z,7.51
2022-10-19T05:45:07.222Z,7.63
2022-10-19T05:47:35.125Z,7.49
2022-10-19T05:50:01.811Z,7.45
2022-10-19T05:52:42.455Z,7.44
2022-10-19T05:55:09.477Z,7.40
2022-10-19T05:57:39.143Z,7.47
2022-10-19T06:00:05.881Z,7.44
2022-10-19T06:02:32.289Z,7.50
2022-10-19T06:04:58.679Z,7.39
2022-10-19T06:07:25.068Z,7.47
2022-10-19T06:09:51.479Z,7.54
2022-10-19T06:12:24.265Z,7.53
2022-10-19T06:14:51.579Z,7.53
2022-10-19T06:17:17.998Z,7.61
2022-10-19T06:19:44.424Z,7.61
2022-10-19T06:22:10.825Z,7.89
2022-10-19T06:24:37.336Z,7.84
2022-10-19T06:27:03.809Z,7.99
2022-10-19T06:29:30.192Z,7.96
2022-10-19T06:31:56.732Z,8.06
2022-10-19T06:34:23.408Z,8.08
2022-10-19T06:36:49.921Z,8.12
2022-10-19T06:39:16.399Z,8.16
2022-10-19T06:41:42.799Z,8.27
2022-10-19T06:44:09.662Z,8.49
2022-10-19T06:46:36.082Z,8.49
2022-10-19T06:49:02.893Z,8.53
2022-10-19T06:51:32.267Z,8.65
2022-10-19T06:53:58.700Z,8.64
2022-10-19T06:56:26.625Z,8.73
2022-10-19T06:58:53.997Z,8.95
2022-10-19T07:01:22.545Z,8.97
2022-10-19T07:03:51.791Z,8.87
2022-10-19T07:06:18.275Z,9.03
2022-10-19T07:08:44.837Z,8.91
2022-10-19T07:11:16.231Z,9.25
2022-10-19T07:13:42.716Z,9.51
2022-10-19T07:16:16.149Z,9.64
2022-10-19T07:18:46.287Z,9.99
2022-10-19T07:21:15.105Z,9.84
2022-10-19T07:23:42.811Z,10.06
2022-10-19T07:26:18.339Z,10.09
2022-10-19T07:28:47.155Z,10.09
2022-10-19T07:31:17.840Z,10.42
2022-10-19T07:33:44.791Z,10.46
2022-10-19T07:36:13.615Z,10.62
2022-10-19T07:38:40.613Z,10.58
2022-10-19T07:41:15.871Z,10.73
2022-10-19T07:43:43.813Z,10.88
2022-10-19T07:46:19.112Z,11.17
2022-10-19T07:48:45.945Z,11.20
2022-10-19T07:51:15.021Z,11.36
2022-10-19T07:53:42.055Z,11.36
2022-10-19T07:56:20.076Z,11.72
2022-10-19T07:58:47.049Z,11.83
2022-10-19T08:01:18.581Z,12.14
2022-10-19T08:06:32.832Z,12.39
2022-10-19T08:08:59.473Z,12.59
2022-10-19T08:11:32.541Z,12.68
2022-10-19T08:13:59.307Z,12.77
2022-10-19T08:16:27.345Z,12.94
2022-10-19T08:18:57.805Z,13.16
2022-10-19T08:21:25.731Z,13.08
2022-10-19T08:23:52.159Z,13.19
2022-10-19T08:26:18.567Z,13.32
2022-10-19T08:28:45.029Z,13.24
2022-10-19T08:31:18.628Z,13.59
2022-10-19T08:33:45.850Z,13.60
2022-10-19T08:36:14.327Z,13.60
2022-10-19T08:38:43.521Z,13.63
2022-10-19T08:41:44.108Z,13.67
2022-10-19T08:44:22.444Z,13.85
2022-10-19T08:47:02.591Z,13.99
2022-10-19T08:49:31.655Z,14.12
2022-10-19T08:52:04.031Z,14.11
2022-10-19T08:54:40.499Z,14.25
2022-10-19T08:57:15.209Z,14.25
2022-10-19T09:00:16.906Z,14.31
2022-10-19T09:03:11.934Z,14.47
2022-10-19T09:06:06.058Z,14.55
2022-10-19T09:08:35.366Z,14.29
2022-10-19T09:11:01.902Z,14.42
2022-10-19T09:14:04.096Z,14.51
2022-10-19T09:16:31.618Z,14.89
2022-10-19T09:18:58.313Z,14.92
2022-10-19T09:21:37.986Z,15.05
2022-10-19T09:24:42.461Z,14.97
2022-10-19T09:27:20.834Z,14.98
2022-10-19T09:30:04.123Z,14.88
2022-10-19T09:32:39.462Z,15.09
2022-10-19T09:35:18.214Z,15.23
2022-10-19T09:37:48.433Z,15.23
2022-10-19T09:40:22.273Z,15.42
2022-10-19T09:42:56.890Z,15.66
2022-10-19T09:45:46.038Z,15.86
2022-10-19T09:48:23.998Z,15.81
2022-10-19T09:50:59.850Z,15.91
2022-10-19T09:53:28.041Z,16.03
2022-10-19T09:55:58.951Z,16.02
2022-10-19T09:58:30.570Z,16.09
2022-10-19T10:01:01.226Z,16.17
2022-10-19T10:03:43.443Z,16.21
2022-10-19T10:06:14.647Z,16.38
2022-10-19T10:08:50.754Z,16.38
2022-10-19T10:11:32.947Z,16.41
2022-10-19T10:14:09.137Z,16.45
2022-10-19T10:16:36.537Z,16.39
2022-10-19T10:19:07.098Z,16.52
2022-10-19T10:21:46.110Z,16.37
2022-10-19T10:24:21.306Z,16.72
2022-10-19T10:26:50.716Z,16.44
2022-10-19T10:29:20.232Z,16.51
2022-10-19T10:31:52.368Z,16.55
2022-10-19T10:34:37.937Z,16.57
2022-10-19T10:37:26.781Z,16.70
2022-10-19T10:39:57.728Z,16.75
2022-10-19T10:42:32.584Z,16.73
2022-10-19T10:44:59.781Z,16.61
2022-10-19T10:47:28.392Z,16.59
2022-10-19T10:49:58.746Z,16.61
2022-10-19T10:52:27.852Z,16.93
2022-10-19T10:55:04.496Z,16.88
2022-10-19T10:57:37.472Z,17.26
2022-10-19T11:00:08.023Z,17.19
2022-10-19T11:02:46.588Z,17.39
2022-10-19T11:05:19.534Z,17.34
2022-10-19T11:07:49.806Z,17.10
2022-10-19T11:10:28.119Z,17.36
2022-10-19T11:13:03.559Z,17.28
2022-10-19T11:15:54.969Z,17.00
2022-10-19T11:18:35.907Z,17.31
2022-10-19T11:21:35.243Z,17.16
2022-10-19T11:24:25.591Z,16.73
2022-10-19T11:27:27.451Z,16.83
2022-10-19T11:29:59.530Z,17.13
2022-10-19T11:32:50.812Z,17.40
2022-10-19T11:35:23.189Z,17.61
2022-10-19T11:38:21.140Z,17.67
2022-10-19T11:41:16.955Z,17.44
2022-10-19T11:43:58.717Z,17.11
2022-10-19T11:46:38.502Z,17.41
2022-10-19T11:49:20.803Z,17.49
2022-10-19T11:51:57.442Z,17.35
2022-10-19T11:54:35.683Z,17.45
2022-10-19T11:57:25.585Z,17.41
2022-10-19T12:00:14.257Z,17.59
2022-10-19T12:03:04.085Z,17.70
2022-10-19T12:06:04.472Z,17.41
2022-10-19T12:09:07.298Z,17.54
2022-10-19T12:11:53.050Z,17.51
2022-10-19T12:14:26.790Z,17.19
2022-10-19T12:16:58.521Z,17.25
2022-10-19T12:19:29.288Z,17.25
2022-10-19T12:22:02.240Z,17.34
2022-10-19T12:24:30.459Z,17.12
2022-10-19T12:26:58.690Z,17.16
2022-10-19T12:29:29.471Z,17.08
2022-10-19T12:31:57.637Z,16.97
2022-10-19T12:34:47.003Z,17.00
2022-10-19T12:37:19.229Z,16.96
2022-10-19T12:39:53.361Z,17.02
2022-10-19T12:42:36.859Z,17.02
2022-10-19T12:45:25.261Z,17.00
2022-10-19T12:48:25.532Z,17.06
2022-10-19T12:50:56.675Z,16.99
2022-10-19T12:53:30.520Z,16.92
2022-10-19T12:56:21.708Z,16.87
2022-10-19T12:59:01.469Z,16.96
2022-10-19T13:01:34.061Z,16.83
2022-10-19T13:04:15.708Z,16.67
2022-10-19T13:07:01.347Z,16.77
2022-10-19T13:09:27.686Z,16.71
2022-10-19T13:12:19.728Z,16.68
2022-10-19T13:14:51.309Z,16.58
2022-10-19T13:17:46.457Z,16.57
2022-10-19T13:20:16.180Z,16.55
2022-10-19T13:22:50.156Z,16.35
2022-10-19T13:25:16.838Z,16.64
2022-10-19T13:27:44.860Z,16.61
2022-10-19T13:30:39.215Z,16.57
2022-10-19T13:33:33.324Z,16.44
2022-10-19T13:35:59.742Z,16.54
2022-10-19T13:38:30.222Z,16.34
2022-10-19T13:41:01.701Z,16.34
2022-10-19T13:43:34.332Z,16.41
2022-10-19T13:46:14.520Z,16.53
2022-10-19T13:48:50.042Z,16.24
2022-10-19T13:51:28.507Z,16.27
2022-10-19T13:54:08.568Z,16.31
2022-10-19T13:56:53.710Z,16.23
2022-10-19T13:59:38.104Z,16.17
2022-10-19T14:02:26.421Z,16.24
2022-10-19T14:05:24.823Z,16.06
2022-10-19T14:08:08.450Z,16.12
2022-10-19T14:10:56.223Z,16.13
2022-10-19T14:13:22.626Z,16.10
2022-10-19T14:15:55.020Z,16.18
2022-10-19T14:18:32.875Z,16.15
2022-10-19T14:21:05.792Z,16.28
2022-10-19T14:23:41.312Z,16.14
2022-10-19T14:26:14.665Z,16.22
2022-10-19T14:28:42.997Z,16.28
2022-10-19T14:31:18.445Z,16.34
2022-10-19T14:33:51.418Z,16.11
2022-10-19T14:36:20.729Z,16.27
2022-10-19T14:38:48.801Z,16.20
2022-10-19T14:41:28.904Z,16.26
2022-10-19T14:44:00.378Z,16.21
2022-10-19T14:46:32.723Z,16.29
2022-10-19T14:49:05.942Z,16.15
2022-10-19T14:51:45.331Z,16.26
2022-10-19T14:54:23.381Z,16.03
2022-10-19T14:56:57.559Z,16.08
2022-10-19T14:59:47.172Z,15.99
2022-10-19T15:02:31.320Z,16.01
2022-10-19T15:05:00.427Z,16.17
2022-10-19T15:07:35.458Z,16.10
2022-10-19T15:10:06.320Z,16.06
2022-10-19T15:12:40.126Z,16.10
2022-10-19T15:15:15.016Z,16.02
2022-10-19T15:17:55.418Z,15.98
2022-10-19T15:20:24.975Z,16.04
2022-10-19T15:22:51.771Z,15.65
2022-10-19T15:25:35.227Z,15.88
2022-10-19T15:28:41.654Z,15.84
2022-10-19T15:31:14.386Z,15.95
2022-10-19T15:33:45.282Z,15.92
2022-10-19T15:36:19.605Z,15.75
2022-10-19T15:38:48.422Z,15.84
2022-10-19T15:41:28.673Z,15.76
2022-10-19T15:44:00.957Z,15.86
2022-10-19T15:46:33.003Z,15.86
2022-10-19T15:49:20.961Z,15.79
2022-10-19T15:51:48.282Z,15.87
2022-10-19T15:54:17.259Z,15.79
2022-10-19T15:56:51.816Z,15.69
2022-10-19T15:59:21.568Z,15.80
2022-10-19T16:01:53.670Z,15.54
2022-10-19T16:04:22.511Z,15.59
2022-10-19T16:06:48.899Z,15.62
2022-10-19T16:09:20.724Z,15.67
2022-10-19T16:11:47.972Z,15.61
2022-10-19T16:14:14.515Z,15.61
2022-10-19T16:16:42.013Z,15.49
2022-10-19T16:19:10.388Z,15.49
2022-10-19T16:21:37.509Z,15.34
2022-10-19T16:24:04.351Z,15.38
2022-10-19T16:26:32.405Z,15.38
2022-10-19T16:29:01.182Z,15.55
2022-10-19T16:31:29.962Z,15.34
2022-10-19T16:33:56.511Z,15.20
2022-10-19T16:36:23.175Z,14.98
2022-10-19T16:38:49.720Z,15.40
2022-10-19T16:41:16.902Z,15.26
2022-10-19T16:43:43.877Z,15.44
2022-10-19T16:46:11.095Z,15.42
2022-10-19T16:48:38.284Z,15.38
2022-10-19T16:51:07.968Z,15.50
2022-10-19T16:53:35.197Z,15.32
2022-10-19T16:56:06.962Z,15.43
2022-10-19T16:58:33.543Z,15.52
2022-10-19T17:01:01.482Z,15.31
2022-10-19T17:03:30.879Z,15.31
2022-10-19T17:05:57.289Z,15.26
2022-10-19T17:11:35.347Z,15.38
2022-10-19T17:14:05.146Z,15.41
2022-10-19T17:16:39.007Z,15.36
2022-10-19T17:19:07.066Z,15.27
2022-10-19T17:21:38.351Z,15.40
2022-10-19T17:24:08.200Z,15.45
2022-10-19T17:26:38.236Z,15.36
2022-10-19T17:29:06.668Z,15.29
2022-10-19T17:31:33.349Z,15.10
2022-10-19T17:34:00.731Z,15.26
2022-10-19T17:36:31.762Z,15.37
2022-10-19T17:39:01.263Z,15.13
2022-10-19T17:41:29.027Z,15.30
2022-10-19T17:43:55.654Z,15.17
2022-10-19T17:46:25.523Z,15.29
2022-10-19T17:48:52.014Z,14.93
2022-10-19T17:51:21.291Z,15.16
2022-10-19T17:53:49.435Z,15.08
2022-10-19T17:56:18.765Z,14.52
2022-10-19T17:58:45.469Z,14.91
2022-10-19T18:01:12.499Z,14.90
2022-10-19T18:03:39.586Z,15.06
2022-10-19T18:06:09.852Z,15.05
2022-10-19T18:08:39.747Z,14.73
2022-10-19T18:11:09.071Z,14.79
2022-10-19T18:16:13.486Z,14.73
2022-10-19T18:18:42.686Z,14.89
2022-10-19T18:21:13.579Z,14.94
2022-10-19T18:23:40.714Z,14.72
